Mariner A — 9HVA7 — position and weather

sailwx.info

Track history (hours):
 
Tides and Currents Weather Stations Pressure Air Temp Water Temp Dewpoint Dewpoint Depression Visibility Wind Speed Wind Dir Waves Ship Positions

Mariner A

Last reported at 2016-Jul-25 00:33 UTC. Time now 2016-Jul-27 03:45 UTC.
Position N 34°37' E 032°31'.

Length 176 m; draft 9.5 m.

Type: Tanker. MMSI: 215817000.

Date/timePositionNaut miles runAvg speedWind from/ knotsBaromVisibWave heightAir tempDewpointWater temp
2016-Jul-25 00:33N 34°37' E 032°31'1212.3
2016-Jul-24 23:33N 34°31' E 032°44'1212.0
2016-Jul-24 22:33N 34°24' E 032°56'1212.2
2016-Jul-24 21:33N 34°14' E 033°05'1212.3
2016-Jul-24 20:33N 34°04' E 033°14'1212.4
2016-Jul-24 19:33N 33°54' E 033°22'1312.4
2016-Jul-24 18:29N 33°43' E 033°32'2312.1
2016-Jul-24 16:33N 33°21' E 033°40'1313.1
2016-Jul-24 15:33N 33°08' E 033°42'1313.2
2016-Jul-24 14:33N 32°55' E 033°42'1313.1
2016-Jul-24 13:33N 32°42' E 033°43'5510.5
2016-Jul-24 08:18N 31°57' E 034°21'  
Track history (hours):
 
Tides and Currents Weather Stations Pressure Air Temp Water Temp Dewpoint Dewpoint Depression Visibility Wind Speed Wind Dir Waves Ship Positions

Mariner A

Last reported at 2016-Jul-25 00:33 UTC. Time now 2016-Jul-27 03:45 UTC.
Position N 34°37' E 032°31'.

Length 176 m; draft 9.5 m.

Type: Tanker. MMSI: 215817000.

Date/timePositionNaut miles runAvg speedWind from/ knotsBaromVisibWave heightAir tempDewpointWater temp
2016-Jul-25 00:33N 34°37' E 032°31'1212.3
2016-Jul-24 23:33N 34°31' E 032°44'1212.0
2016-Jul-24 22:33N 34°24' E 032°56'1212.2
2016-Jul-24 21:33N 34°14' E 033°05'1212.3
2016-Jul-24 20:33N 34°04' E 033°14'1212.4
2016-Jul-24 19:33N 33°54' E 033°22'1312.4
2016-Jul-24 18:29N 33°43' E 033°32'2312.1
2016-Jul-24 16:33N 33°21' E 033°40'1313.1
2016-Jul-24 15:33N 33°08' E 033°42'1313.2
2016-Jul-24 14:33N 32°55' E 033°42'1313.1
2016-Jul-24 13:33N 32°42' E 033°43'5510.5
2016-Jul-24 08:18N 31°57' E 034°21'  

Dump ship's entire track history